Tuesday, October 21, 2014
00:34 UTC
  |  Log In   |  Register Free
Airport Search:

Hampton Roads Executive Airport
(KPVG)

Hampton Roads Executive Airport Diagram
No Airport Diagram Available

FAA data valid effective September 18, 2014 - November 13, 2014 (unless otherwise noted).

 
 
 
 
 
 
 
 
 
 
 
 
 
 

Current Aviation Weather for Hampton Roads Executive Airport (KPVG)

The most recent METAR observation for KPVG was updated at: 0015
METAR Summary (Translated METAR)
KPVG
202355Z AUTO 00000KT 10SM CLR 09/07 A3003 RMK AO1 10200 20090 402000000 52003
KCPK
202355Z AUTO 00000KT 10SM CLR 13/11 A3002 RMK AO2
(9.2 nm SE from KPVG)
KSFQ
202355Z AUTO 00000KT 10SM 12/10 A3002 RMK AO2 T01160102 10198 20116
(9.4 nm SW from KPVG)
TAF
No TAF information found within 50 nm of KPVG
  Airport Weather Conditions for KPVG

 Current Weather at PVG
48° F
Fair
North winds at 0.0 mph
PVG NOAA Radar

Pressure: 30.03 in
Humidity: 87%
Wind: Calm
Dew Point: 44.6°F
Visibility: 10.00 mi


Airport Weather Forecast for KPVG

Translated METAR and TAF for KPVG
Translated METAR for KPVG (0029 UTC 21 October 2014)
found at http://aviationweather.gov/adds/metars/
 
METAR text: KPVG 210015Z AUTO 00000KT 10SM CLR 09/07 A3003 RMK AO1
Conditions at: KPVG (NORFOLK/HAMPTON , VA, US) observed 0015 UTC 21 October 2014
Temperature: 9.0°C (48°F)
Dewpoint: 7.0°C (45°F) [RH = 87%]
Pressure (altimeter): 30.03 inches Hg (1017.0 mb)
Winds: calm
Visibility: 10 or more miles (16+ km)
Ceiling: at least 12,000 feet AGL
Clouds: sky clear below 12,000 feet AGL
Weather: automated observation with no human augmentation;
there may or may not be significant weather present at this time
Translated TAF for KPVG

There is no translated TAF available for this airport

Find All Airport Services Find A Hotel Find A Rental Car Find A Golf Course Find A Restaurant $100 Hamburger



FBO's on the Field
FBO Company Facility Photos Services Transportation Aviation Fuel Prices: Prices include tax
Catering Weather Repair Courtesy Rental Type 100LL JetA JetA+ MOGAS 8087
 
Hampton Roads Executive Airport

This FBO has not yet been rated
FS:Shell
Last Updated: Oct-14
Login to update fuel prices
SS:
Contact Hampton Roads Executive AirportMore FBO Information
 
Add another FBO Facility Photos Catering Weather Repair Courtesy Rental Type 100LL JetA JetA+ MOGAS 8087
Services Transportation Aviation Fuel Prices: Prices include tax


model-print
model-print
model-print
model-print